sensor_id;sensor_type;location;lat;lon;timestamp;pressure;altitude;pressure_sealevel;temperature;humidity
80927;BME280;70385;44.538;18.532;2024-02-26T00:01:16;98634.91;;;6.65;100.00
80927;BME280;70385;44.538;18.532;2024-02-26T00:03:42;98632.31;;;6.65;100.00
80927;BME280;70385;44.538;18.532;2024-02-26T00:06:10;98630.75;;;6.61;100.00
80927;BME280;70385;44.538;18.532;2024-02-26T00:08:36;98630.09;;;6.56;100.00
80927;BME280;70385;44.538;18.532;2024-02-26T00:11:03;98627.84;;;6.47;100.00
80927;BME280;70385;44.538;18.532;2024-02-26T00:13:29;98626.53;;;6.36;100.00
80927;BME280;70385;44.538;18.532;2024-02-26T00:15:58;98628.31;;;6.34;100.00
80927;BME280;70385;44.538;18.532;2024-02-26T00:18:24;98636.81;;;6.39;100.00
80927;BME280;70385;44.538;18.532;2024-02-26T00:20:50;98622.91;;;6.41;100.00
80927;BME280;70385;44.538;18.532;2024-02-26T00:23:16;98630.72;;;6.41;100.00
80927;BME280;70385;44.538;18.532;2024-02-26T00:25:49;98648.72;;;6.45;100.00
80927;BME280;70385;44.538;18.532;2024-02-26T00:28:17;98645.13;;;6.48;100.00
80927;BME280;70385;44.538;18.532;2024-02-26T00:30:47;98634.75;;;6.48;100.00
80927;BME280;70385;44.538;18.532;2024-02-26T00:33:17;98620.97;;;6.46;100.00
80927;BME280;70385;44.538;18.532;2024-02-26T00:35:44;98620.97;;;6.46;100.00
80927;BME280;70385;44.538;18.532;2024-02-26T00:38:09;98622.66;;;6.47;100.00
80927;BME280;70385;44.538;18.532;2024-02-26T00:40:36;98620.19;;;6.44;100.00
80927;BME280;70385;44.538;18.532;2024-02-26T00:43:02;98633.19;;;6.44;100.00
80927;BME280;70385;44.538;18.532;2024-02-26T00:45:28;98625.44;;;6.42;100.00
80927;BME280;70385;44.538;18.532;2024-02-26T00:47:54;98622.13;;;6.38;100.00
80927;BME280;70385;44.538;18.532;2024-02-26T00:50:21;98622.78;;;6.44;100.00
80927;BME280;70385;44.538;18.532;2024-02-26T00:52:51;98605.50;;;6.43;100.00
80927;BME280;70385;44.538;18.532;2024-02-26T00:55:17;98601.88;;;6.47;100.00
80927;BME280;70385;44.538;18.532;2024-02-26T00:57:45;98597.66;;;6.44;100.00
80927;BME280;70385;44.538;18.532;2024-02-26T01:00:12;98594.25;;;6.42;100.00
80927;BME280;70385;44.538;18.532;2024-02-26T01:02:40;98586.41;;;6.44;100.00
80927;BME280;70385;44.538;18.532;2024-02-26T01:05:08;98597.72;;;6.43;100.00
80927;BME280;70385;44.538;18.532;2024-02-26T01:07:39;98607.06;;;6.47;100.00
80927;BME280;70385;44.538;18.532;2024-02-26T01:10:08;98602.72;;;6.47;100.00
80927;BME280;70385;44.538;18.532;2024-02-26T01:12:35;98609.00;;;6.42;100.00
80927;BME280;70385;44.538;18.532;2024-02-26T01:15:01;98593.78;;;6.32;100.00
80927;BME280;70385;44.538;18.532;2024-02-26T01:17:31;98594.63;;;6.33;100.00
80927;BME280;70385;44.538;18.532;2024-02-26T01:19:57;98597.16;;;6.34;100.00
80927;BME280;70385;44.538;18.532;2024-02-26T01:22:26;98591.16;;;6.32;100.00
80927;BME280;70385;44.538;18.532;2024-02-26T01:24:53;98585.31;;;6.27;100.00
80927;BME280;70385;44.538;18.532;2024-02-26T01:27:19;98597.53;;;6.25;100.00
80927;BME280;70385;44.538;18.532;2024-02-26T01:29:45;98591.28;;;6.29;100.00
80927;BME280;70385;44.538;18.532;2024-02-26T01:32:11;98594.69;;;6.31;100.00
80927;BME280;70385;44.538;18.532;2024-02-26T01:34:37;98594.50;;;6.36;100.00
80927;BME280;70385;44.538;18.532;2024-02-26T01:37:03;98591.94;;;6.34;100.00
80927;BME280;70385;44.538;18.532;2024-02-26T01:39:29;98589.41;;;6.33;100.00
80927;BME280;70385;44.538;18.532;2024-02-26T01:41:55;98589.59;;;6.28;100.00
80927;BME280;70385;44.538;18.532;2024-02-26T01:44:21;98584.88;;;6.16;100.00
80927;BME280;70385;44.538;18.532;2024-02-26T01:46:48;98579.69;;;6.16;100.00
80927;BME280;70385;44.538;18.532;2024-02-26T01:49:21;98584.84;;;6.18;100.00
80927;BME280;70385;44.538;18.532;2024-02-26T01:51:48;98575.31;;;6.18;100.00
80927;BME280;70385;44.538;18.532;2024-02-26T01:54:14;98573.25;;;6.26;100.00
80927;BME280;70385;44.538;18.532;2024-02-26T01:56:41;98572.41;;;6.26;100.00
80927;BME280;70385;44.538;18.532;2024-02-26T01:59:07;98586.03;;;6.31;100.00
80927;BME280;70385;44.538;18.532;2024-02-26T02:01:34;98580.38;;;6.21;100.00
80927;BME280;70385;44.538;18.532;2024-02-26T02:04:01;98590.66;;;6.24;100.00
80927;BME280;70385;44.538;18.532;2024-02-26T02:06:29;98590.84;;;6.20;100.00
80927;BME280;70385;44.538;18.532;2024-02-26T02:08:56;98591.81;;;6.17;100.00
80927;BME280;70385;44.538;18.532;2024-02-26T02:11:23;98587.31;;;6.21;100.00
80927;BME280;70385;44.538;18.532;2024-02-26T02:13:50;98586.47;;;6.20;100.00
80927;BME280;70385;44.538;18.532;2024-02-26T02:16:16;98578.56;;;6.23;100.00
80927;BME280;70385;44.538;18.532;2024-02-26T02:18:41;98596.63;;;6.26;100.00
80927;BME280;70385;44.538;18.532;2024-02-26T02:21:07;98583.63;;;6.26;100.00
80927;BME280;70385;44.538;18.532;2024-02-26T02:23:33;98579.47;;;6.22;100.00
80927;BME280;70385;44.538;18.532;2024-02-26T02:25:59;98577.66;;;6.24;100.00
80927;BME280;70385;44.538;18.532;2024-02-26T02:28:26;98565.38;;;6.28;100.00
80927;BME280;70385;44.538;18.532;2024-02-26T02:30:56;98564.66;;;6.24;100.00
80927;BME280;70385;44.538;18.532;2024-02-26T02:33:22;98554.56;;;6.17;100.00
80927;BME280;70385;44.538;18.532;2024-02-26T02:35:49;98566.69;;;6.16;100.00
80927;BME280;70385;44.538;18.532;2024-02-26T02:38:16;98557.84;;;6.00;100.00
80927;BME280;70385;44.538;18.532;2024-02-26T02:40:42;98555.84;;;6.06;100.00
80927;BME280;70385;44.538;18.532;2024-02-26T02:43:08;98570.53;;;6.07;100.00
80927;BME280;70385;44.538;18.532;2024-02-26T02:45:34;98578.06;;;6.14;100.00
80927;BME280;70385;44.538;18.532;2024-02-26T02:48:00;98567.09;;;6.07;100.00
80927;BME280;70385;44.538;18.532;2024-02-26T02:50:26;98567.22;;;6.04;100.00
80927;BME280;70385;44.538;18.532;2024-02-26T02:52:54;98552.72;;;5.98;100.00
80927;BME280;70385;44.538;18.532;2024-02-26T02:55:22;98547.56;;;5.97;100.00
80927;BME280;70385;44.538;18.532;2024-02-26T02:57:48;98551.00;;;5.97;100.00
80927;BME280;70385;44.538;18.532;2024-02-26T03:00:14;98539.66;;;6.00;100.00
80927;BME280;70385;44.538;18.532;2024-02-26T03:02:43;98548.38;;;5.99;100.00
80927;BME280;70385;44.538;18.532;2024-02-26T03:05:11;98540.66;;;5.96;100.00
80927;BME280;70385;44.538;18.532;2024-02-26T03:07:37;98546.91;;;5.92;100.00
80927;BME280;70385;44.538;18.532;2024-02-26T03:10:03;98549.56;;;5.90;100.00
80927;BME280;70385;44.538;18.532;2024-02-26T03:12:30;98548.19;;;5.80;100.00
80927;BME280;70385;44.538;18.532;2024-02-26T03:14:56;98550.63;;;5.85;100.00
80927;BME280;70385;44.538;18.532;2024-02-26T03:17:22;98544.69;;;5.81;100.00
80927;BME280;70385;44.538;18.532;2024-02-26T03:19:49;98551.59;;;5.82;100.00
80927;BME280;70385;44.538;18.532;2024-02-26T03:22:22;98540.63;;;5.74;100.00
80927;BME280;70385;44.538;18.532;2024-02-26T03:24:48;98545.75;;;5.75;100.00
80927;BME280;70385;44.538;18.532;2024-02-26T03:27:14;98543.47;;;5.68;100.00
80927;BME280;70385;44.538;18.532;2024-02-26T03:29:42;98540.81;;;5.69;100.00
80927;BME280;70385;44.538;18.532;2024-02-26T03:32:08;98544.91;;;5.75;100.00
80927;BME280;70385;44.538;18.532;2024-02-26T03:34:34;98548.53;;;5.71;100.00
80927;BME280;70385;44.538;18.532;2024-02-26T03:37:00;98541.72;;;5.68;100.00
80927;BME280;70385;44.538;18.532;2024-02-26T03:39:26;98544.25;;;5.70;100.00
80927;BME280;70385;44.538;18.532;2024-02-26T03:41:52;98548.34;;;5.75;100.00
80927;BME280;70385;44.538;18.532;2024-02-26T03:44:19;98540.56;;;5.75;100.00
80927;BME280;70385;44.538;18.532;2024-02-26T03:46:48;98549.94;;;5.79;100.00
80927;BME280;70385;44.538;18.532;2024-02-26T03:49:13;98546.72;;;5.73;100.00
80927;BME280;70385;44.538;18.532;2024-02-26T03:51:39;98546.66;;;5.74;100.00
80927;BME280;70385;44.538;18.532;2024-02-26T03:54:05;98545.16;;;5.69;100.00
80927;BME280;70385;44.538;18.532;2024-02-26T03:56:31;98537.63;;;5.63;100.00
80927;BME280;70385;44.538;18.532;2024-02-26T03:58:59;98529.78;;;5.64;100.00
80927;BME280;70385;44.538;18.532;2024-02-26T04:01:28;98542.22;;;5.55;100.00
80927;BME280;70385;44.538;18.532;2024-02-26T04:03:54;98538.00;;;5.52;100.00
80927;BME280;70385;44.538;18.532;2024-02-26T04:06:20;98553.44;;;5.55;100.00
80927;BME280;70385;44.538;18.532;2024-02-26T04:08:49;98550.06;;;5.53;100.00
80927;BME280;70385;44.538;18.532;2024-02-26T04:11:15;98555.06;;;5.59;100.00
80927;BME280;70385;44.538;18.532;2024-02-26T04:13:44;98555.72;;;5.64;100.00
80927;BME280;70385;44.538;18.532;2024-02-26T04:16:12;98553.19;;;5.63;100.00
80927;BME280;70385;44.538;18.532;2024-02-26T04:18:42;98559.22;;;5.63;100.00
80927;BME280;70385;44.538;18.532;2024-02-26T04:21:10;98548.72;;;5.66;100.00
80927;BME280;70385;44.538;18.532;2024-02-26T04:23:39;98547.09;;;5.64;100.00
80927;BME280;70385;44.538;18.532;2024-02-26T04:26:05;98550.47;;;5.66;100.00
80927;BME280;70385;44.538;18.532;2024-02-26T04:28:31;98554.69;;;5.68;100.00
80927;BME280;70385;44.538;18.532;2024-02-26T04:30:56;98553.56;;;5.52;100.00
80927;BME280;70385;44.538;18.532;2024-02-26T04:33:22;98549.28;;;5.51;100.00
80927;BME280;70385;44.538;18.532;2024-02-26T04:35:48;98554.25;;;5.57;100.00
80927;BME280;70385;44.538;18.532;2024-02-26T04:38:15;98548.38;;;5.52;100.00
80927;BME280;70385;44.538;18.532;2024-02-26T04:40:41;98550.19;;;5.50;100.00
80927;BME280;70385;44.538;18.532;2024-02-26T04:43:06;98555.38;;;5.50;100.00
80927;BME280;70385;44.538;18.532;2024-02-26T04:45:32;98556.03;;;5.55;100.00
80927;BME280;70385;44.538;18.532;2024-02-26T04:48:00;98554.41;;;5.53;100.00
80927;BME280;70385;44.538;18.532;2024-02-26T04:50:29;98543.31;;;5.49;100.00
80927;BME280;70385;44.538;18.532;2024-02-26T04:52:55;98553.44;;;5.55;100.00
80927;BME280;70385;44.538;18.532;2024-02-26T04:55:21;98549.22;;;5.53;100.00
80927;BME280;70385;44.538;18.532;2024-02-26T04:57:47;98545.00;;;5.50;100.00
80927;BME280;70385;44.538;18.532;2024-02-26T05:00:14;98553.44;;;5.55;100.00
80927;BME280;70385;44.538;18.532;2024-02-26T05:02:40;98546.81;;;5.48;100.00
80927;BME280;70385;44.538;18.532;2024-02-26T05:05:06;98542.75;;;5.41;100.00
80927;BME280;70385;44.538;18.532;2024-02-26T05:07:38;98548.84;;;5.40;100.00
80927;BME280;70385;44.538;18.532;2024-02-26T05:10:05;98545.56;;;5.35;100.00
80927;BME280;70385;44.538;18.532;2024-02-26T05:12:31;98537.78;;;5.35;100.00
80927;BME280;70385;44.538;18.532;2024-02-26T05:15:02;98551.44;;;5.40;100.00
80927;BME280;70385;44.538;18.532;2024-02-26T05:17:28;98551.44;;;5.40;100.00
80927;BME280;70385;44.538;18.532;2024-02-26T05:19:55;98544.78;;;5.33;100.00
80927;BME280;70385;44.538;18.532;2024-02-26T05:22:21;98544.88;;;5.30;100.00
80927;BME280;70385;44.538;18.532;2024-02-26T05:24:47;98555.28;;;5.30;100.00
80927;BME280;70385;44.538;18.532;2024-02-26T05:27:16;98558.47;;;5.36;100.00
80927;BME280;70385;44.538;18.532;2024-02-26T05:29:42;98562.03;;;5.34;100.00
80927;BME280;70385;44.538;18.532;2024-02-26T05:32:08;98572.56;;;5.29;100.00
80927;BME280;70385;44.538;18.532;2024-02-26T05:34:35;98574.38;;;5.27;100.00
80927;BME280;70385;44.538;18.532;2024-02-26T05:37:03;98577.28;;;5.18;100.00
80927;BME280;70385;44.538;18.532;2024-02-26T05:39:29;98570.41;;;5.17;100.00
80927;BME280;70385;44.538;18.532;2024-02-26T05:41:55;98567.69;;;5.20;100.00
80927;BME280;70385;44.538;18.532;2024-02-26T05:44:22;98561.66;;;5.19;100.00
80927;BME280;70385;44.538;18.532;2024-02-26T05:46:50;98567.19;;;5.10;100.00
80927;BME280;70385;44.538;18.532;2024-02-26T05:49:19;98579.88;;;5.18;100.00
80927;BME280;70385;44.538;18.532;2024-02-26T05:51:45;98579.16;;;5.14;100.00
80927;BME280;70385;44.538;18.532;2024-02-26T05:54:11;98580.22;;;5.09;100.00
80927;BME280;70385;44.538;18.532;2024-02-26T05:56:37;98579.03;;;5.17;100.00
80927;BME280;70385;44.538;18.532;2024-02-26T05:59:04;98579.47;;;5.05;100.00
80927;BME280;70385;44.538;18.532;2024-02-26T06:01:31;98572.50;;;5.07;100.00
80927;BME280;70385;44.538;18.532;2024-02-26T06:04:03;98582.69;;;5.12;100.00
80927;BME280;70385;44.538;18.532;2024-02-26T06:06:33;98589.31;;;5.21;100.00
80927;BME280;70385;44.538;18.532;2024-02-26T06:08:59;98592.00;;;5.17;100.00
80927;BME280;70385;44.538;18.532;2024-02-26T06:11:25;98596.28;;;5.18;100.00
80927;BME280;70385;44.538;18.532;2024-02-26T06:13:51;98588.16;;;5.04;100.00
80927;BME280;70385;44.538;18.532;2024-02-26T06:16:24;98589.75;;;5.08;100.00
80927;BME280;70385;44.538;18.532;2024-02-26T06:18:51;98579.22;;;4.88;100.00
80927;BME280;70385;44.538;18.532;2024-02-26T06:24:30;98591.28;;;4.89;100.00
80927;BME280;70385;44.538;18.532;2024-02-26T06:26:57;98576.50;;;4.91;100.00
80927;BME280;70385;44.538;18.532;2024-02-26T06:29:25;98597.16;;;4.94;100.00
80927;BME280;70385;44.538;18.532;2024-02-26T06:31:51;98580.00;;;4.90;100.00
80927;BME280;70385;44.538;18.532;2024-02-26T06:34:22;98591.38;;;4.86;100.00
80927;BME280;70385;44.538;18.532;2024-02-26T06:36:47;98587.09;;;4.85;100.00
80927;BME280;70385;44.538;18.532;2024-02-26T06:39:13;98605.81;;;4.93;100.00
80927;BME280;70385;44.538;18.532;2024-02-26T06:41:43;98615.56;;;4.86;100.00
80927;BME280;70385;44.538;18.532;2024-02-26T06:44:13;98620.53;;;4.93;100.00
80927;BME280;70385;44.538;18.532;2024-02-26T06:46:40;98614.50;;;4.92;100.00
80927;BME280;70385;44.538;18.532;2024-02-26T06:49:13;98617.94;;;4.93;100.00
80927;BME280;70385;44.538;18.532;2024-02-26T06:51:38;98609.09;;;4.98;100.00
80927;BME280;70385;44.538;18.532;2024-02-26T06:54:04;98611.69;;;4.98;100.00
80927;BME280;70385;44.538;18.532;2024-02-26T06:56:43;98610.44;;;5.10;100.00
80927;BME280;70385;44.538;18.532;2024-02-26T06:59:14;98610.38;;;5.11;100.00
80927;BME280;70385;44.538;18.532;2024-02-26T07:01:43;98610.41;;;5.35;100.00
80927;BME280;70385;44.538;18.532;2024-02-26T07:04:20;98616.94;;;5.22;100.00
80927;BME280;70385;44.538;18.532;2024-02-26T07:06:49;98607.16;;;5.30;100.00
80927;BME280;70385;44.538;18.532;2024-02-26T07:09:16;98607.50;;;5.44;100.00
80927;BME280;70385;44.538;18.532;2024-02-26T07:11:53;98613.47;;;5.46;100.00
80927;BME280;70385;44.538;18.532;2024-02-26T07:14:23;98617.41;;;5.56;100.00
80927;BME280;70385;44.538;18.532;2024-02-26T07:16:55;98626.69;;;5.63;100.00
80927;BME280;70385;44.538;18.532;2024-02-26T07:19:25;98627.91;;;5.53;100.00
80927;BME280;70385;44.538;18.532;2024-02-26T07:22:08;98627.25;;;5.48;100.00
80927;BME280;70385;44.538;18.532;2024-02-26T07:24:44;98617.47;;;5.31;100.00
80927;BME280;70385;44.538;18.532;2024-02-26T07:30:51;98612.16;;;5.34;100.00
80927;BME280;70385;44.538;18.532;2024-02-26T07:33:29;98620.59;;;5.64;100.00
80927;BME280;70385;44.538;18.532;2024-02-26T07:40:08;98626.16;;;5.77;100.00
80927;BME280;70385;44.538;18.532;2024-02-26T07:42:34;98635.69;;;5.76;100.00
80927;BME280;70385;44.538;18.532;2024-02-26T07:45:02;98637.41;;;5.77;100.00
80927;BME280;70385;44.538;18.532;2024-02-26T07:47:28;98644.75;;;5.66;100.00
80927;BME280;70385;44.538;18.532;2024-02-26T07:49:57;98641.06;;;5.48;100.00
80927;BME280;70385;44.538;18.532;2024-02-26T07:52:44;98647.47;;;5.63;100.00
80927;BME280;70385;44.538;18.532;2024-02-26T07:55:11;98637.06;;;5.63;100.00
80927;BME280;70385;44.538;18.532;2024-02-26T07:57:44;98644.97;;;5.60;100.00
80927;BME280;70385;44.538;18.532;2024-02-26T08:00:10;98639.66;;;5.63;100.00
80927;BME280;70385;44.538;18.532;2024-02-26T08:02:37;98649.50;;;5.78;100.00
80927;BME280;70385;44.538;18.532;2024-02-26T08:05:22;98641.34;;;5.88;100.00
80927;BME280;70385;44.538;18.532;2024-02-26T08:07:48;98639.72;;;6.08;100.00
80927;BME280;70385;44.538;18.532;2024-02-26T08:10:14;98643.50;;;6.23;100.00
80927;BME280;70385;44.538;18.532;2024-02-26T08:12:54;98647.41;;;6.55;100.00
80927;BME280;70385;44.538;18.532;2024-02-26T08:15:38;98645.31;;;6.65;100.00
80927;BME280;70385;44.538;18.532;2024-02-26T08:18:16;98643.53;;;6.87;100.00
80927;BME280;70385;44.538;18.532;2024-02-26T08:20:41;98633.59;;;6.97;100.00
80927;BME280;70385;44.538;18.532;2024-02-26T08:23:07;98626.53;;;7.21;100.00
80927;BME280;70385;44.538;18.532;2024-02-26T08:25:44;98622.97;;;7.42;100.00
80927;BME280;70385;44.538;18.532;2024-02-26T08:28:18;98628.44;;;7.56;100.00
80927;BME280;70385;44.538;18.532;2024-02-26T08:30:55;98626.78;;;7.93;100.00
80927;BME280;70385;44.538;18.532;2024-02-26T08:33:21;98635.25;;;7.59;100.00
80927;BME280;70385;44.538;18.532;2024-02-26T08:35:47;98634.00;;;7.68;100.00
80927;BME280;70385;44.538;18.532;2024-02-26T08:38:29;98629.09;;;7.99;100.00
80927;BME280;70385;44.538;18.532;2024-02-26T08:41:18;98623.03;;;7.80;100.00
80927;BME280;70385;44.538;18.532;2024-02-26T08:44:17;98627.28;;;8.01;100.00
80927;BME280;70385;44.538;18.532;2024-02-26T08:47:14;98620.66;;;7.94;100.00
80927;BME280;70385;44.538;18.532;2024-02-26T08:49:49;98611.38;;;7.49;100.00
80927;BME280;70385;44.538;18.532;2024-02-26T08:52:19;98612.53;;;7.63;100.00
80927;BME280;70385;44.538;18.532;2024-02-26T08:54:48;98611.16;;;7.93;100.00
80927;BME280;70385;44.538;18.532;2024-02-26T08:57:24;98607.94;;;8.79;100.00
80927;BME280;70385;44.538;18.532;2024-02-26T08:59:56;98604.03;;;8.70;100.00
80927;BME280;70385;44.538;18.532;2024-02-26T09:02:33;98599.78;;;9.02;100.00
80927;BME280;70385;44.538;18.532;2024-02-26T09:08:29;98580.09;;;8.97;100.00
80927;BME280;70385;44.538;18.532;2024-02-26T09:11:24;98578.75;;;9.05;100.00
80927;BME280;70385;44.538;18.532;2024-02-26T09:14:13;98585.56;;;9.25;100.00
80927;BME280;70385;44.538;18.532;2024-02-26T09:16:43;98581.75;;;9.15;100.00
80927;BME280;70385;44.538;18.532;2024-02-26T09:19:17;98583.31;;;9.02;100.00
80927;BME280;70385;44.538;18.532;2024-02-26T09:21:53;98586.13;;;9.15;100.00
80927;BME280;70385;44.538;18.532;2024-02-26T09:24:23;98580.06;;;9.31;100.00
80927;BME280;70385;44.538;18.532;2024-02-26T09:27:25;98577.56;;;9.46;100.00
80927;BME280;70385;44.538;18.532;2024-02-26T09:30:09;98583.16;;;9.71;100.00
80927;BME280;70385;44.538;18.532;2024-02-26T09:32:46;98568.44;;;10.01;100.00
80927;BME280;70385;44.538;18.532;2024-02-26T09:35:24;98567.34;;;10.21;100.00
80927;BME280;70385;44.538;18.532;2024-02-26T09:38:03;98573.25;;;10.41;100.00
80927;BME280;70385;44.538;18.532;2024-02-26T09:40:52;98578.06;;;10.48;100.00
80927;BME280;70385;44.538;18.532;2024-02-26T09:43:27;98565.91;;;10.31;100.00
80927;BME280;70385;44.538;18.532;2024-02-26T09:46:10;98567.94;;;10.72;100.00
80927;BME280;70385;44.538;18.532;2024-02-26T09:49:31;98555.50;;;10.61;100.00
80927;BME280;70385;44.538;18.532;2024-02-26T09:52:27;98552.72;;;10.64;100.00
80927;BME280;70385;44.538;18.532;2024-02-26T09:55:10;98557.59;;;10.25;100.00
80927;BME280;70385;44.538;18.532;2024-02-26T09:57:37;98557.63;;;10.85;100.00
80927;BME280;70385;44.538;18.532;2024-02-26T10:00:21;98550.94;;;11.09;100.00
80927;BME280;70385;44.538;18.532;2024-02-26T10:02:51;98556.66;;;11.44;100.00
80927;BME280;70385;44.538;18.532;2024-02-26T10:05:27;98552.66;;;11.39;100.00
80927;BME280;70385;44.538;18.532;2024-02-26T10:07:59;98552.53;;;11.26;100.00
80927;BME280;70385;44.538;18.532;2024-02-26T10:10:29;98558.44;;;11.58;100.00
80927;BME280;70385;44.538;18.532;2024-02-26T10:13:00;98557.31;;;11.48;100.00
80927;BME280;70385;44.538;18.532;2024-02-26T10:15:31;98555.44;;;11.64;100.00
80927;BME280;70385;44.538;18.532;2024-02-26T10:18:05;98548.56;;;11.76;100.00
80927;BME280;70385;44.538;18.532;2024-02-26T10:20:31;98552.44;;;11.70;100.00
80927;BME280;70385;44.538;18.532;2024-02-26T10:23:05;98544.03;;;11.79;100.00
80927;BME280;70385;44.538;18.532;2024-02-26T10:25:33;98550.66;;;11.85;100.00
80927;BME280;70385;44.538;18.532;2024-02-26T10:28:06;98544.25;;;12.18;100.00
80927;BME280;70385;44.538;18.532;2024-02-26T10:30:46;98537.41;;;12.15;100.00
80927;BME280;70385;44.538;18.532;2024-02-26T10:33:25;98533.94;;;12.41;100.00
80927;BME280;70385;44.538;18.532;2024-02-26T10:36:12;98522.69;;;12.79;100.00
80927;BME280;70385;44.538;18.532;2024-02-26T10:38:41;98516.19;;;12.97;100.00
80927;BME280;70385;44.538;18.532;2024-02-26T10:41:13;98504.31;;;13.04;100.00
80927;BME280;70385;44.538;18.532;2024-02-26T10:43:42;98511.38;;;13.17;100.00
80927;BME280;70385;44.538;18.532;2024-02-26T10:46:17;98506.34;;;13.26;100.00
80927;BME280;70385;44.538;18.532;2024-02-26T10:48:53;98513.78;;;13.45;100.00
80927;BME280;70385;44.538;18.532;2024-02-26T10:51:34;98505.72;;;13.35;100.00
80927;BME280;70385;44.538;18.532;2024-02-26T10:54:11;98505.78;;;13.47;100.00
80927;BME280;70385;44.538;18.532;2024-02-26T10:56:45;98490.88;;;13.84;100.00
80927;BME280;70385;44.538;18.532;2024-02-26T10:59:35;98498.00;;;13.94;100.00
80927;BME280;70385;44.538;18.532;2024-02-26T11:02:20;98495.06;;;13.86;100.00
80927;BME280;70385;44.538;18.532;2024-02-26T11:04:46;98482.06;;;14.33;100.00
80927;BME280;70385;44.538;18.532;2024-02-26T11:07:23;98475.88;;;14.69;100.00
80927;BME280;70385;44.538;18.532;2024-02-26T11:09:59;98477.31;;;14.84;100.00
80927;BME280;70385;44.538;18.532;2024-02-26T11:12:28;98472.72;;;14.64;100.00
80927;BME280;70385;44.538;18.532;2024-02-26T11:15:12;98482.97;;;15.02;100.00
80927;BME280;70385;44.538;18.532;2024-02-26T11:17:45;98477.75;;;15.13;100.00
80927;BME280;70385;44.538;18.532;2024-02-26T11:20:34;98473.44;;;15.45;100.00
80927;BME280;70385;44.538;18.532;2024-02-26T11:23:05;98466.19;;;15.92;100.00
80927;BME280;70385;44.538;18.532;2024-02-26T11:25:36;98465.56;;;16.00;100.00
80927;BME280;70385;44.538;18.532;2024-02-26T11:28:14;98462.56;;;16.04;100.00
80927;BME280;70385;44.538;18.532;2024-02-26T11:30:48;98448.63;;;16.14;100.00
80927;BME280;70385;44.538;18.532;2024-02-26T11:33:24;98455.25;;;16.40;100.00
80927;BME280;70385;44.538;18.532;2024-02-26T11:36:32;98454.44;;;16.81;100.00
80927;BME280;70385;44.538;18.532;2024-02-26T11:39:04;98445.28;;;16.85;100.00
80927;BME280;70385;44.538;18.532;2024-02-26T11:41:43;98452.16;;;16.77;100.00
80927;BME280;70385;44.538;18.532;2024-02-26T11:44:49;98448.31;;;17.02;100.00
80927;BME280;70385;44.538;18.532;2024-02-26T11:47:58;98446.81;;;17.39;100.00
80927;BME280;70385;44.538;18.532;2024-02-26T11:50:38;98441.38;;;17.41;99.28
80927;BME280;70385;44.538;18.532;2024-02-26T11:58:46;98419.69;;;17.47;93.11
80927;BME280;70385;44.538;18.532;2024-02-26T12:01:38;98425.09;;;18.05;89.08
80927;BME280;70385;44.538;18.532;2024-02-26T12:04:15;98413.13;;;18.20;80.00
80927;BME280;70385;44.538;18.532;2024-02-26T12:06:50;98424.25;;;18.62;76.36
80927;BME280;70385;44.538;18.532;2024-02-26T12:09:34;98410.88;;;18.54;73.52
80927;BME280;70385;44.538;18.532;2024-02-26T12:12:10;98412.84;;;18.23;65.55
80927;BME280;70385;44.538;18.532;2024-02-26T12:14:49;98405.00;;;18.50;65.74
80927;BME280;70385;44.538;18.532;2024-02-26T12:17:20;98409.69;;;18.95;65.28
80927;BME280;70385;44.538;18.532;2024-02-26T12:19:49;98403.38;;;19.06;63.35
80927;BME280;70385;44.538;18.532;2024-02-26T12:22:19;98395.97;;;19.37;62.59
80927;BME280;70385;44.538;18.532;2024-02-26T12:24:46;98399.66;;;19.26;60.61
80927;BME280;70385;44.538;18.532;2024-02-26T12:27:15;98403.66;;;19.40;57.16
80927;BME280;70385;44.538;18.532;2024-02-26T12:29:41;98404.50;;;19.86;54.32
80927;BME280;70385;44.538;18.532;2024-02-26T12:32:08;98401.06;;;19.58;54.15
80927;BME280;70385;44.538;18.532;2024-02-26T12:34:38;98405.53;;;18.83;56.05
80927;BME280;70385;44.538;18.532;2024-02-26T12:37:04;98394.31;;;19.63;53.55
80927;BME280;70385;44.538;18.532;2024-02-26T12:39:30;98404.28;;;19.24;53.79
80927;BME280;70385;44.538;18.532;2024-02-26T12:41:57;98399.81;;;19.80;53.83
80927;BME280;70385;44.538;18.532;2024-02-26T12:44:26;98392.00;;;19.78;52.37
80927;BME280;70385;44.538;18.532;2024-02-26T12:47:00;98396.19;;;20.16;52.99
80927;BME280;70385;44.538;18.532;2024-02-26T12:49:30;98388.50;;;20.31;50.83
80927;BME280;70385;44.538;18.532;2024-02-26T12:51:58;98385.50;;;20.26;50.71
80927;BME280;70385;44.538;18.532;2024-02-26T12:54:30;98380.91;;;21.06;48.71
80927;BME280;70385;44.538;18.532;2024-02-26T12:56:58;98385.09;;;21.16;47.96
80927;BME280;70385;44.538;18.532;2024-02-26T12:59:25;98383.16;;;20.92;49.69
80927;BME280;70385;44.538;18.532;2024-02-26T13:01:51;98378.75;;;21.09;45.72
80927;BME280;70385;44.538;18.532;2024-02-26T13:04:17;98378.22;;;20.46;47.33
80927;BME280;70385;44.538;18.532;2024-02-26T13:06:44;98382.91;;;19.98;47.69
80927;BME280;70385;44.538;18.532;2024-02-26T13:09:15;98379.66;;;19.87;48.48
80927;BME280;70385;44.538;18.532;2024-02-26T13:11:41;98387.03;;;19.38;49.49
80927;BME280;70385;44.538;18.532;2024-02-26T13:14:06;98394.19;;;19.28;49.71
80927;BME280;70385;44.538;18.532;2024-02-26T13:16:32;98389.56;;;19.67;49.80
80927;BME280;70385;44.538;18.532;2024-02-26T13:19:11;98383.78;;;19.44;50.65
80927;BME280;70385;44.538;18.532;2024-02-26T13:21:37;98392.81;;;19.24;51.61
80927;BME280;70385;44.538;18.532;2024-02-26T13:24:07;98388.97;;;19.08;52.57
80927;BME280;70385;44.538;18.532;2024-02-26T13:26:33;98387.00;;;19.75;51.68